sensor_id;sensor_type;location;lat;lon;timestamp;pressure;altitude;pressure_sealevel;temperature;humidity
14689;BME280;7432;48.728;9.154;2023-01-28T00:01:08;97104.88;;;-0.17;86.83
14689;BME280;7432;48.728;9.154;2023-01-28T00:03:34;97101.53;;;-0.18;87.08
14689;BME280;7432;48.728;9.154;2023-01-28T00:06:01;97096.94;;;-0.27;88.14
14689;BME280;7432;48.728;9.154;2023-01-28T00:08:28;97098.34;;;-0.21;87.74
14689;BME280;7432;48.728;9.154;2023-01-28T00:10:58;97092.38;;;-0.20;88.00
14689;BME280;7432;48.728;9.154;2023-01-28T00:13:25;97099.25;;;-0.22;87.64
14689;BME280;7432;48.728;9.154;2023-01-28T00:15:54;97087.72;;;-0.28;87.52
14689;BME280;7432;48.728;9.154;2023-01-28T00:18:20;97092.44;;;-0.22;87.52
14689;BME280;7432;48.728;9.154;2023-01-28T00:20:55;97094.91;;;-0.20;86.97
14689;BME280;7432;48.728;9.154;2023-01-28T00:23:21;97094.66;;;-0.16;87.32
14689;BME280;7432;48.728;9.154;2023-01-28T00:25:48;97097.88;;;-0.12;87.15
14689;BME280;7432;48.728;9.154;2023-01-28T00:28:15;97091.81;;;-0.10;86.85
14689;BME280;7432;48.728;9.154;2023-01-28T00:30:42;97096.06;;;-0.10;86.42
14689;BME280;7432;48.728;9.154;2023-01-28T00:33:08;97095.06;;;-0.23;87.26
14689;BME280;7432;48.728;9.154;2023-01-28T00:35:34;97094.09;;;-0.21;87.06
14689;BME280;7432;48.728;9.154;2023-01-28T00:38:01;97086.44;;;-0.19;88.00
14689;BME280;7432;48.728;9.154;2023-01-28T00:40:27;97079.63;;;-0.19;87.28
14689;BME280;7432;48.728;9.154;2023-01-28T00:42:53;97089.44;;;-0.13;87.26
14689;BME280;7432;48.728;9.154;2023-01-28T00:45:21;97075.81;;;-0.10;87.31
14689;BME280;7432;48.728;9.154;2023-01-28T00:47:48;97081.84;;;-0.13;87.22
14689;BME280;7432;48.728;9.154;2023-01-28T00:50:15;97079.25;;;-0.11;87.58
14689;BME280;7432;48.728;9.154;2023-01-28T00:52:41;97080.06;;;-0.11;87.63
14689;BME280;7432;48.728;9.154;2023-01-28T00:55:08;97082.00;;;-0.16;87.10
14689;BME280;7432;48.728;9.154;2023-01-28T00:57:35;97090.59;;;-0.18;87.27
14689;BME280;7432;48.728;9.154;2023-01-28T01:00:02;97081.38;;;-0.19;87.62
14689;BME280;7432;48.728;9.154;2023-01-28T01:02:30;97077.47;;;-0.25;87.14
14689;BME280;7432;48.728;9.154;2023-01-28T01:04:56;97087.00;;;-0.14;87.09
14689;BME280;7432;48.728;9.154;2023-01-28T01:07:27;97084.84;;;-0.22;87.50
14689;BME280;7432;48.728;9.154;2023-01-28T01:09:59;97086.44;;;-0.19;87.78
14689;BME280;7432;48.728;9.154;2023-01-28T01:12:26;97086.09;;;-0.13;87.59
14689;BME280;7432;48.728;9.154;2023-01-28T01:14:52;97081.59;;;-0.08;87.19
14689;BME280;7432;48.728;9.154;2023-01-28T01:17:19;97078.19;;;-0.07;87.31
14689;BME280;7432;48.728;9.154;2023-01-28T01:19:47;97084.06;;;-0.07;87.26
14689;BME280;7432;48.728;9.154;2023-01-28T01:22:13;97094.84;;;-0.03;87.71
14689;BME280;7432;48.728;9.154;2023-01-28T01:24:39;97095.66;;;-0.03;88.06
14689;BME280;7432;48.728;9.154;2023-01-28T01:27:06;97096.41;;;-0.01;87.41
14689;BME280;7432;48.728;9.154;2023-01-28T01:29:32;97094.09;;;-0.05;87.20
14689;BME280;7432;48.728;9.154;2023-01-28T01:31:59;97094.69;;;0.00;86.78
14689;BME280;7432;48.728;9.154;2023-01-28T01:34:25;97095.41;;;-0.14;87.51
14689;BME280;7432;48.728;9.154;2023-01-28T01:36:53;97094.41;;;-0.27;88.20
14689;BME280;7432;48.728;9.154;2023-01-28T01:39:19;97101.38;;;-0.15;87.60
14689;BME280;7432;48.728;9.154;2023-01-28T01:41:46;97095.66;;;-0.18;88.45
14689;BME280;7432;48.728;9.154;2023-01-28T01:47:32;97093.38;;;-0.07;88.38
14689;BME280;7432;48.728;9.154;2023-01-28T01:50:02;97089.91;;;-0.22;87.04
14689;BME280;7432;48.728;9.154;2023-01-28T01:52:34;97104.88;;;-0.17;87.52
14689;BME280;7432;48.728;9.154;2023-01-28T01:55:04;97103.09;;;-0.15;88.07
14689;BME280;7432;48.728;9.154;2023-01-28T01:57:33;97107.25;;;-0.14;88.74
14689;BME280;7432;48.728;9.154;2023-01-28T02:00:03;97104.38;;;-0.08;88.57
14689;BME280;7432;48.728;9.154;2023-01-28T02:02:35;97104.63;;;0.03;88.52
14689;BME280;7432;48.728;9.154;2023-01-28T02:05:03;97100.31;;;-0.11;88.06
14689;BME280;7432;48.728;9.154;2023-01-28T02:07:29;97104.06;;;-0.02;87.66
14689;BME280;7432;48.728;9.154;2023-01-28T02:09:57;97103.19;;;-0.01;87.14
14689;BME280;7432;48.728;9.154;2023-01-28T02:12:27;97104.41;;;0.08;87.43
14689;BME280;7432;48.728;9.154;2023-01-28T02:14:56;97099.03;;;0.14;87.08
14689;BME280;7432;48.728;9.154;2023-01-28T02:17:24;97106.13;;;0.07;87.44
14689;BME280;7432;48.728;9.154;2023-01-28T02:19:53;97113.88;;;0.04;87.39
14689;BME280;7432;48.728;9.154;2023-01-28T02:22:33;97109.97;;;-0.02;87.58
14689;BME280;7432;48.728;9.154;2023-01-28T02:25:34;97111.34;;;-0.12;89.04
14689;BME280;7432;48.728;9.154;2023-01-28T02:28:12;97106.19;;;-0.10;88.02
14689;BME280;7432;48.728;9.154;2023-01-28T02:30:46;97112.75;;;-0.06;88.00
14689;BME280;7432;48.728;9.154;2023-01-28T02:33:19;97106.34;;;-0.13;88.06
14689;BME280;7432;48.728;9.154;2023-01-28T02:35:51;97108.25;;;-0.01;89.07
14689;BME280;7432;48.728;9.154;2023-01-28T02:38:22;97107.50;;;-0.03;88.85
14689;BME280;7432;48.728;9.154;2023-01-28T02:40:53;97092.50;;;-0.06;88.81
14689;BME280;7432;48.728;9.154;2023-01-28T02:43:32;97104.72;;;0.02;87.79
14689;BME280;7432;48.728;9.154;2023-01-28T02:45:59;97106.84;;;0.09;88.74
14689;BME280;7432;48.728;9.154;2023-01-28T02:48:45;97103.19;;;-0.01;88.26
14689;BME280;7432;48.728;9.154;2023-01-28T02:51:18;97111.09;;;-0.07;88.76
14689;BME280;7432;48.728;9.154;2023-01-28T02:53:51;97122.03;;;-0.07;88.57
14689;BME280;7432;48.728;9.154;2023-01-28T02:56:27;97115.22;;;-0.22;89.39
14689;BME280;7432;48.728;9.154;2023-01-28T02:59:01;97115.88;;;-0.18;89.69
14689;BME280;7432;48.728;9.154;2023-01-28T03:01:52;97114.59;;;-0.25;89.18
14689;BME280;7432;48.728;9.154;2023-01-28T03:04:27;97116.97;;;-0.22;90.12
14689;BME280;7432;48.728;9.154;2023-01-28T03:06:57;97117.13;;;-0.25;89.64
14689;BME280;7432;48.728;9.154;2023-01-28T03:09:30;97121.25;;;-0.24;89.97
14689;BME280;7432;48.728;9.154;2023-01-28T03:11:58;97122.34;;;-0.13;89.67
14689;BME280;7432;48.728;9.154;2023-01-28T03:14:50;97124.41;;;-0.19;90.39
14689;BME280;7432;48.728;9.154;2023-01-28T03:17:40;97122.09;;;-0.08;90.91
14689;BME280;7432;48.728;9.154;2023-01-28T03:20:27;97109.13;;;-0.18;90.80
14689;BME280;7432;48.728;9.154;2023-01-28T03:23:16;97114.44;;;-0.07;90.36
14689;BME280;7432;48.728;9.154;2023-01-28T03:26:06;97114.34;;;-0.05;90.96
14689;BME280;7432;48.728;9.154;2023-01-28T03:28:53;97124.31;;;-0.02;91.95
14689;BME280;7432;48.728;9.154;2023-01-28T03:31:43;97116.16;;;0.09;91.51
14689;BME280;7432;48.728;9.154;2023-01-28T03:34:27;97109.69;;;0.03;90.98
14689;BME280;7432;48.728;9.154;2023-01-28T03:37:11;97116.97;;;-0.07;91.75
14689;BME280;7432;48.728;9.154;2023-01-28T03:39:39;97118.44;;;-0.03;91.66
14689;BME280;7432;48.728;9.154;2023-01-28T03:42:07;97120.63;;;-0.12;91.54
14689;BME280;7432;48.728;9.154;2023-01-28T03:44:34;97119.09;;;-0.15;91.64
14689;BME280;7432;48.728;9.154;2023-01-28T03:47:21;97128.38;;;-0.15;92.41
14689;BME280;7432;48.728;9.154;2023-01-28T03:49:49;97123.22;;;-0.14;93.03
14689;BME280;7432;48.728;9.154;2023-01-28T03:52:18;97126.44;;;-0.10;92.91
14689;BME280;7432;48.728;9.154;2023-01-28T03:54:45;97129.94;;;-0.13;92.36
14689;BME280;7432;48.728;9.154;2023-01-28T03:57:13;97132.72;;;-0.17;93.62
14689;BME280;7432;48.728;9.154;2023-01-28T03:59:40;97139.59;;;-0.04;93.19
14689;BME280;7432;48.728;9.154;2023-01-28T04:02:07;97120.31;;;-0.06;92.91
14689;BME280;7432;48.728;9.154;2023-01-28T04:04:36;97128.50;;;-0.01;93.18
14689;BME280;7432;48.728;9.154;2023-01-28T04:07:03;97124.63;;;-0.08;93.43
14689;BME280;7432;48.728;9.154;2023-01-28T04:09:29;97127.72;;;-0.19;93.84
14689;BME280;7432;48.728;9.154;2023-01-28T04:11:55;97129.78;;;-0.10;93.71
14689;BME280;7432;48.728;9.154;2023-01-28T04:14:22;97126.38;;;-0.09;94.27
14689;BME280;7432;48.728;9.154;2023-01-28T04:16:48;97123.91;;;-0.10;93.75
14689;BME280;7432;48.728;9.154;2023-01-28T04:19:16;97131.22;;;-0.21;94.40
14689;BME280;7432;48.728;9.154;2023-01-28T04:21:44;97136.81;;;-0.15;94.18
14689;BME280;7432;48.728;9.154;2023-01-28T04:24:10;97136.81;;;-0.15;94.38
14689;BME280;7432;48.728;9.154;2023-01-28T04:26:36;97140.16;;;-0.14;93.93
14689;BME280;7432;48.728;9.154;2023-01-28T04:29:03;97137.69;;;-0.16;93.86
14689;BME280;7432;48.728;9.154;2023-01-28T04:31:29;97148.38;;;-0.11;93.83
14689;BME280;7432;48.728;9.154;2023-01-28T04:33:56;97144.84;;;-0.24;94.35
14689;BME280;7432;48.728;9.154;2023-01-28T04:36:23;97149.34;;;-0.29;95.02
14689;BME280;7432;48.728;9.154;2023-01-28T04:38:50;97149.84;;;-0.22;94.58
14689;BME280;7432;48.728;9.154;2023-01-28T04:41:18;97152.38;;;-0.22;94.70
14689;BME280;7432;48.728;9.154;2023-01-28T04:43:44;97155.88;;;-0.25;95.18
14689;BME280;7432;48.728;9.154;2023-01-28T04:46:13;97157.66;;;-0.27;95.35
14689;BME280;7432;48.728;9.154;2023-01-28T04:48:39;97155.72;;;-0.22;94.83
14689;BME280;7432;48.728;9.154;2023-01-28T04:51:06;97166.22;;;-0.29;95.48
14689;BME280;7432;48.728;9.154;2023-01-28T04:53:33;97166.81;;;-0.24;94.93
14689;BME280;7432;48.728;9.154;2023-01-28T04:56:01;97168.44;;;-0.23;95.38
14689;BME280;7432;48.728;9.154;2023-01-28T04:58:27;97171.56;;;-0.18;95.27
14689;BME280;7432;48.728;9.154;2023-01-28T05:00:54;97166.25;;;-0.14;95.48
14689;BME280;7432;48.728;9.154;2023-01-28T05:03:21;97163.97;;;-0.18;95.85
14689;BME280;7432;48.728;9.154;2023-01-28T05:05:48;97166.25;;;-0.14;94.67
14689;BME280;7432;48.728;9.154;2023-01-28T05:08:15;97168.47;;;-0.08;95.02
14689;BME280;7432;48.728;9.154;2023-01-28T05:10:42;97168.56;;;-0.09;95.55
14689;BME280;7432;48.728;9.154;2023-01-28T05:13:09;97170.59;;;-0.16;95.58
14689;BME280;7432;48.728;9.154;2023-01-28T05:15:36;97184.16;;;-0.17;95.77
14689;BME280;7432;48.728;9.154;2023-01-28T05:18:02;97180.63;;;-0.14;95.51
14689;BME280;7432;48.728;9.154;2023-01-28T05:20:29;97181.38;;;-0.12;96.03
14689;BME280;7432;48.728;9.154;2023-01-28T05:22:55;97176.38;;;-0.14;95.58
14689;BME280;7432;48.728;9.154;2023-01-28T05:25:21;97173.34;;;-0.20;95.51
14689;BME280;7432;48.728;9.154;2023-01-28T05:27:49;97157.22;;;-0.35;95.53
14689;BME280;7432;48.728;9.154;2023-01-28T05:30:17;97170.09;;;-0.22;95.96
14689;BME280;7432;48.728;9.154;2023-01-28T05:32:44;97179.16;;;-0.18;95.55
14689;BME280;7432;48.728;9.154;2023-01-28T05:35:10;97171.41;;;-0.15;95.92
14689;BME280;7432;48.728;9.154;2023-01-28T05:37:37;97164.38;;;-0.10;96.07
14689;BME280;7432;48.728;9.154;2023-01-28T05:40:04;97155.09;;;-0.10;95.40
14689;BME280;7432;48.728;9.154;2023-01-28T05:42:31;97169.53;;;-0.12;95.79
14689;BME280;7432;48.728;9.154;2023-01-28T05:44:57;97171.81;;;-0.07;96.09
14689;BME280;7432;48.728;9.154;2023-01-28T05:47:26;97173.69;;;-0.11;95.76
14689;BME280;7432;48.728;9.154;2023-01-28T05:49:52;97168.06;;;-0.16;95.64
14689;BME280;7432;48.728;9.154;2023-01-28T05:52:19;97176.47;;;-0.15;96.07
14689;BME280;7432;48.728;9.154;2023-01-28T05:54:45;97176.38;;;-0.14;96.70
14689;BME280;7432;48.728;9.154;2023-01-28T05:57:12;97175.09;;;-0.05;96.68
14689;BME280;7432;48.728;9.154;2023-01-28T05:59:38;97182.78;;;-0.07;95.82
14689;BME280;7432;48.728;9.154;2023-01-28T06:02:05;97178.75;;;-0.11;95.94
14689;BME280;7432;48.728;9.154;2023-01-28T06:04:32;97180.25;;;-0.07;96.58
14689;BME280;7432;48.728;9.154;2023-01-28T06:06:59;97184.34;;;-0.04;96.24
14689;BME280;7432;48.728;9.154;2023-01-28T06:09:25;97189.31;;;-0.03;96.23
14689;BME280;7432;48.728;9.154;2023-01-28T06:11:52;97191.47;;;0.05;96.64
14689;BME280;7432;48.728;9.154;2023-01-28T06:14:18;97198.25;;;0.05;95.47
14689;BME280;7432;48.728;9.154;2023-01-28T06:16:44;97198.16;;;0.06;96.35
14689;BME280;7432;48.728;9.154;2023-01-28T06:19:11;97194.88;;;0.04;95.64
14689;BME280;7432;48.728;9.154;2023-01-28T06:21:39;97199.22;;;0.02;95.58
14689;BME280;7432;48.728;9.154;2023-01-28T06:24:07;97215.22;;;0.03;96.29
14689;BME280;7432;48.728;9.154;2023-01-28T06:26:34;97217.09;;;-0.01;95.32
14689;BME280;7432;48.728;9.154;2023-01-28T06:29:00;97227.28;;;-0.03;95.90
14689;BME280;7432;48.728;9.154;2023-01-28T06:31:26;97224.16;;;-0.08;95.96
14689;BME280;7432;48.728;9.154;2023-01-28T06:33:53;97222.16;;;-0.01;95.98
14689;BME280;7432;48.728;9.154;2023-01-28T06:36:19;97226.81;;;0.07;96.18
14689;BME280;7432;48.728;9.154;2023-01-28T06:38:47;97206.09;;;-0.17;96.62
14689;BME280;7432;48.728;9.154;2023-01-28T06:41:13;97233.81;;;0.02;96.86
14689;BME280;7432;48.728;9.154;2023-01-28T06:43:39;97234.50;;;0.05;96.65
14689;BME280;7432;48.728;9.154;2023-01-28T06:46:06;97235.38;;;0.04;95.72
14689;BME280;7432;48.728;9.154;2023-01-28T06:48:32;97243.72;;;0.06;95.26
14689;BME280;7432;48.728;9.154;2023-01-28T06:50:59;97238.75;;;0.05;95.21
14689;BME280;7432;48.728;9.154;2023-01-28T06:53:25;97249.75;;;0.04;96.13
14689;BME280;7432;48.728;9.154;2023-01-28T06:55:53;97228.41;;;-0.08;95.39
14689;BME280;7432;48.728;9.154;2023-01-28T06:58:19;97253.50;;;-0.04;95.63
14689;BME280;7432;48.728;9.154;2023-01-28T07:00:46;97248.13;;;0.03;95.05
14689;BME280;7432;48.728;9.154;2023-01-28T07:03:12;97252.44;;;0.00;95.99
14689;BME280;7432;48.728;9.154;2023-01-28T07:05:38;97253.34;;;-0.01;95.85
14689;BME280;7432;48.728;9.154;2023-01-28T07:08:05;97254.75;;;0.05;95.32
14689;BME280;7432;48.728;9.154;2023-01-28T07:10:31;97251.81;;;0.13;95.58
14689;BME280;7432;48.728;9.154;2023-01-28T07:12:59;97255.47;;;0.07;94.88
14689;BME280;7432;48.728;9.154;2023-01-28T07:15:26;97261.56;;;0.03;95.18
14689;BME280;7432;48.728;9.154;2023-01-28T07:17:52;97251.34;;;-0.11;96.16
14689;BME280;7432;48.728;9.154;2023-01-28T07:20:19;97257.34;;;0.04;95.75
14689;BME280;7432;48.728;9.154;2023-01-28T07:22:46;97257.03;;;0.10;95.74
14689;BME280;7432;48.728;9.154;2023-01-28T07:25:13;97266.34;;;0.09;95.84
14689;BME280;7432;48.728;9.154;2023-01-28T07:27:48;97268.66;;;0.14;95.75
14689;BME280;7432;48.728;9.154;2023-01-28T07:30:18;97265.06;;;0.18;95.57
14689;BME280;7432;48.728;9.154;2023-01-28T07:32:45;97271.22;;;0.29;95.20
14689;BME280;7432;48.728;9.154;2023-01-28T07:35:12;97266.84;;;0.33;94.85
14689;BME280;7432;48.728;9.154;2023-01-28T07:37:38;97271.56;;;0.39;95.07
14689;BME280;7432;48.728;9.154;2023-01-28T07:40:06;97271.72;;;0.36;94.44
14689;BME280;7432;48.728;9.154;2023-01-28T07:42:33;97271.56;;;0.39;94.85
14689;BME280;7432;48.728;9.154;2023-01-28T07:44:59;97272.22;;;0.42;93.87
14689;BME280;7432;48.728;9.154;2023-01-28T07:47:27;97278.09;;;0.27;94.81
14689;BME280;7432;48.728;9.154;2023-01-28T07:49:53;97277.19;;;0.28;94.84
14689;BME280;7432;48.728;9.154;2023-01-28T07:52:20;97276.88;;;0.34;94.33
14689;BME280;7432;48.728;9.154;2023-01-28T07:54:46;97279.41;;;0.34;94.85
14689;BME280;7432;48.728;9.154;2023-01-28T07:57:13;97284.78;;;0.28;95.04
14689;BME280;7432;48.728;9.154;2023-01-28T07:59:39;97289.28;;;0.39;94.10
14689;BME280;7432;48.728;9.154;2023-01-28T08:02:09;97283.88;;;0.29;95.44
14689;BME280;7432;48.728;9.154;2023-01-28T08:04:37;97293.72;;;0.35;94.70
14689;BME280;7432;48.728;9.154;2023-01-28T08:07:04;97295.19;;;0.39;95.09
14689;BME280;7432;48.728;9.154;2023-01-28T08:09:31;97299.19;;;0.43;94.27
14689;BME280;7432;48.728;9.154;2023-01-28T08:11:58;97303.91;;;0.34;94.31
14689;BME280;7432;48.728;9.154;2023-01-28T08:14:25;97300.50;;;0.35;94.71
14689;BME280;7432;48.728;9.154;2023-01-28T08:16:51;97293.78;;;0.34;94.36
14689;BME280;7432;48.728;9.154;2023-01-28T08:19:18;97304.13;;;0.46;94.35
14689;BME280;7432;48.728;9.154;2023-01-28T08:21:47;97304.44;;;0.40;94.08
14689;BME280;7432;48.728;9.154;2023-01-28T08:24:13;97310.53;;;0.36;94.47
14689;BME280;7432;48.728;9.154;2023-01-28T08:26:40;97306.88;;;0.42;94.59
14689;BME280;7432;48.728;9.154;2023-01-28T08:29:06;97308.00;;;0.36;94.89
14689;BME280;7432;48.728;9.154;2023-01-28T08:31:32;97306.28;;;0.37;94.81
14689;BME280;7432;48.728;9.154;2023-01-28T08:33:59;97312.84;;;0.41;94.26
14689;BME280;7432;48.728;9.154;2023-01-28T08:36:25;97311.19;;;0.40;93.96
14689;BME280;7432;48.728;9.154;2023-01-28T08:38:53;97311.22;;;0.55;94.04
14689;BME280;7432;48.728;9.154;2023-01-28T08:41:20;97307.34;;;0.66;93.46
14689;BME280;7432;48.728;9.154;2023-01-28T08:43:47;97309.22;;;0.78;92.90
14689;BME280;7432;48.728;9.154;2023-01-28T08:46:13;97306.28;;;0.85;93.53
14689;BME280;7432;48.728;9.154;2023-01-28T08:48:40;97313.00;;;0.86;92.44
14689;BME280;7432;48.728;9.154;2023-01-28T08:51:06;97313.66;;;0.90;91.45
14689;BME280;7432;48.728;9.154;2023-01-28T08:53:33;97307.50;;;1.09;92.43
14689;BME280;7432;48.728;9.154;2023-01-28T08:56:01;97309.47;;;0.89;92.69
14689;BME280;7432;48.728;9.154;2023-01-28T08:58:27;97316.03;;;1.08;92.44
14689;BME280;7432;48.728;9.154;2023-01-28T09:00:54;97319.47;;;1.39;91.68
14689;BME280;7432;48.728;9.154;2023-01-28T09:03:20;97321.59;;;1.31;89.00
14689;BME280;7432;48.728;9.154;2023-01-28T09:05:46;97318.69;;;1.37;89.03
14689;BME280;7432;48.728;9.154;2023-01-28T09:08:14;97317.78;;;1.53;89.22
14689;BME280;7432;48.728;9.154;2023-01-28T09:10:41;97325.72;;;1.63;88.75
14689;BME280;7432;48.728;9.154;2023-01-28T09:13:11;97325.16;;;1.42;87.26
14689;BME280;7432;48.728;9.154;2023-01-28T09:15:38;97321.66;;;1.29;88.29
14689;BME280;7432;48.728;9.154;2023-01-28T09:18:04;97324.09;;;1.46;87.38
14689;BME280;7432;48.728;9.154;2023-01-28T09:20:31;97319.03;;;1.46;87.46
14689;BME280;7432;48.728;9.154;2023-01-28T09:22:58;97325.50;;;1.52;87.36
14689;BME280;7432;48.728;9.154;2023-01-28T09:25:25;97314.94;;;1.44;87.21
14689;BME280;7432;48.728;9.154;2023-01-28T09:27:51;97328.63;;;1.41;87.88
14689;BME280;7432;48.728;9.154;2023-01-28T09:30:19;97330.13;;;1.59;86.75
14689;BME280;7432;48.728;9.154;2023-01-28T09:32:49;97340.84;;;1.64;86.77
14689;BME280;7432;48.728;9.154;2023-01-28T09:35:15;97336.13;;;1.58;85.98
14689;BME280;7432;48.728;9.154;2023-01-28T09:37:43;97347.06;;;1.74;85.92
14689;BME280;7432;48.728;9.154;2023-01-28T09:40:13;97346.94;;;1.92;84.33
14689;BME280;7432;48.728;9.154;2023-01-28T09:45:41;97356.56;;;2.01;84.75
14689;BME280;7432;48.728;9.154;2023-01-28T09:48:13;97355.69;;;2.02;84.16
14689;BME280;7432;48.728;9.154;2023-01-28T09:50:42;97355.25;;;2.09;83.28
14689;BME280;7432;48.728;9.154;2023-01-28T09:53:12;97361.50;;;2.04;84.77
14689;BME280;7432;48.728;9.154;2023-01-28T09:55:43;97364.91;;;2.18;83.99
14689;BME280;7432;48.728;9.154;2023-01-28T09:58:12;97360.78;;;2.46;83.85
14689;BME280;7432;48.728;9.154;2023-01-28T10:00:49;97335.59;;;2.41;80.92
14689;BME280;7432;48.728;9.154;2023-01-28T10:03:27;97363.00;;;2.36;82.43
14689;BME280;7432;48.728;9.154;2023-01-28T10:06:05;97363.66;;;2.39;81.44
14689;BME280;7432;48.728;9.154;2023-01-28T10:08:54;97366.28;;;2.52;81.43
14689;BME280;7432;48.728;9.154;2023-01-28T10:11:37;97365.13;;;2.58;81.54
14689;BME280;7432;48.728;9.154;2023-01-28T10:14:12;97361.50;;;2.48;80.08
14689;BME280;7432;48.728;9.154;2023-01-28T10:16:49;97358.91;;;2.33;81.10
14689;BME280;7432;48.728;9.154;2023-01-28T10:19:18;97357.31;;;2.47;82.02
14689;BME280;7432;48.728;9.154;2023-01-28T10:21:49;97353.78;;;2.05;82.00
14689;BME280;7432;48.728;9.154;2023-01-28T10:24:23;97359.72;;;1.90;84.03
14689;BME280;7432;48.728;9.154;2023-01-28T10:26:51;97356.91;;;1.95;82.99
14689;BME280;7432;48.728;9.154;2023-01-28T10:29:19;97349.00;;;1.85;82.85
14689;BME280;7432;48.728;9.154;2023-01-28T10:31:53;97355.53;;;1.89;84.38
14689;BME280;7432;48.728;9.154;2023-01-28T10:34:20;97349.25;;;1.80;82.99
14689;BME280;7432;48.728;9.154;2023-01-28T10:36:48;97355.97;;;1.82;83.12
14689;BME280;7432;48.728;9.154;2023-01-28T10:39:16;97355.63;;;1.58;85.09
14689;BME280;7432;48.728;9.154;2023-01-28T10:41:43;97347.84;;;1.61;84.57
14689;BME280;7432;48.728;9.154;2023-01-28T10:44:13;97341.38;;;1.40;86.98
14689;BME280;7432;48.728;9.154;2023-01-28T10:46:42;97344.81;;;1.39;86.62
14689;BME280;7432;48.728;9.154;2023-01-28T10:49:14;97345.47;;;1.27;87.20
14689;BME280;7432;48.728;9.154;2023-01-28T10:51:43;97350.81;;;1.22;88.00
14689;BME280;7432;48.728;9.154;2023-01-28T10:54:27;97335.75;;;1.19;88.88
14689;BME280;7432;48.728;9.154;2023-01-28T10:56:56;97340.19;;;1.31;87.92
14689;BME280;7432;48.728;9.154;2023-01-28T10:59:27;97342.47;;;1.20;88.85
14689;BME280;7432;48.728;9.154;2023-01-28T11:01:55;97335.50;;;1.24;89.55
14689;BME280;7432;48.728;9.154;2023-01-28T11:04:25;97345.00;;;1.36;88.66
14689;BME280;7432;48.728;9.154;2023-01-28T11:06:56;97344.00;;;1.38;88.54
14689;BME280;7432;48.728;9.154;2023-01-28T11:09:24;97343.34;;;1.35;87.58
14689;BME280;7432;48.728;9.154;2023-01-28T11:11:51;97348.09;;;1.25;87.73
14689;BME280;7432;48.728;9.154;2023-01-28T11:14:22;97344.59;;;1.12;87.45
14689;BME280;7432;48.728;9.154;2023-01-28T11:16:51;97347.28;;;1.09;87.89
14689;BME280;7432;48.728;9.154;2023-01-28T11:19:19;97349.97;;;1.06;88.22
14689;BME280;7432;48.728;9.154;2023-01-28T11:21:51;97347.91;;;1.12;89.29
14689;BME280;7432;48.728;9.154;2023-01-28T11:24:21;97352.34;;;1.09;88.68
14689;BME280;7432;48.728;9.154;2023-01-28T11:26:51;97341.47;;;1.23;88.68
14689;BME280;7432;48.728;9.154;2023-01-28T11:29:24;97328.03;;;1.20;88.09
14689;BME280;7432;48.728;9.154;2023-01-28T11:31:52;97353.06;;;1.42;87.56
14689;BME280;7432;48.728;9.154;2023-01-28T11:34:19;97348.22;;;1.53;88.32
14689;BME280;7432;48.728;9.154;2023-01-28T11:36:51;97348.81;;;1.58;88.89
14689;BME280;7432;48.728;9.154;2023-01-28T11:39:20;97353.31;;;1.69;87.93
14689;BME280;7432;48.728;9.154;2023-01-28T11:41:48;97355.53;;;1.44;88.25
14689;BME280;7432;48.728;9.154;2023-01-28T11:44:19;97354.16;;;1.38;88.17
14689;BME280;7432;48.728;9.154;2023-01-28T11:46:55;97347.19;;;1.42;88.77
14689;BME280;7432;48.728;9.154;2023-01-28T11:49:36;97348.06;;;1.56;88.02
14689;BME280;7432;48.728;9.154;2023-01-28T11:52:17;97342.13;;;1.87;87.68
14689;BME280;7432;48.728;9.154;2023-01-28T11:54:52;97347.25;;;2.01;85.41
14689;BME280;7432;48.728;9.154;2023-01-28T11:57:24;97344.97;;;2.11;85.26
14689;BME280;7432;48.728;9.154;2023-01-28T12:00:13;97348.44;;;2.10;84.51
14689;BME280;7432;48.728;9.154;2023-01-28T12:02:50;97350.06;;;2.11;83.92
14689;BME280;7432;48.728;9.154;2023-01-28T12:05:32;97351.97;;;1.77;85.13
14689;BME280;7432;48.728;9.154;2023-01-28T12:08:11;97350.34;;;1.76;85.72
14689;BME280;7432;48.728;9.154;2023-01-28T12:10:50;97341.25;;;1.72;86.00
14689;BME280;7432;48.728;9.154;2023-01-28T12:13:37;97340.94;;;1.63;86.69
14689;BME280;7432;48.728;9.154;2023-01-28T12:16:37;97347.91;;;1.59;86.01
14689;BME280;7432;48.728;9.154;2023-01-28T12:19:38;97347.75;;;1.62;86.76
14689;BME280;7432;48.728;9.154;2023-01-28T12:22:15;97351.75;;;1.66;86.38
14689;BME280;7432;48.728;9.154;2023-01-28T12:24:58;97347.56;;;1.65;87.06
14689;BME280;7432;48.728;9.154;2023-01-28T12:27:35;97350.66;;;1.70;85.82
14689;BME280;7432;48.728;9.154;2023-01-28T12:30:16;97353.13;;;1.56;87.12
14689;BME280;7432;48.728;9.154;2023-01-28T12:33:01;97348.72;;;1.60;86.22
14689;BME280;7432;48.728;9.154;2023-01-28T12:35:41;97355.28;;;1.48;87.33
14689;BME280;7432;48.728;9.154;2023-01-28T12:38:20;97350.22;;;1.33;87.06
14689;BME280;7432;48.728;9.154;2023-01-28T12:40:55;97348.84;;;1.27;87.66
14689;BME280;7432;48.728;9.154;2023-01-28T12:43:31;97352.66;;;1.34;88.31
14689;BME280;7432;48.728;9.154;2023-01-28T12:46:09;97351.34;;;1.43;88.18
14689;BME280;7432;48.728;9.154;2023-01-28T12:48:40;97344.25;;;1.49;88.24
14689;BME280;7432;48.728;9.154;2023-01-28T12:51:13;97347.38;;;1.39;87.94
14689;BME280;7432;48.728;9.154;2023-01-28T12:53:46;97346.03;;;1.32;87.92
14689;BME280;7432;48.728;9.154;2023-01-28T12:56:20;97344.34;;;1.16;88.89
14689;BME280;7432;48.728;9.154;2023-01-28T12:58:51;97332.53;;;1.00;89.40
14689;BME280;7432;48.728;9.154;2023-01-28T13:01:23;97341.88;;;1.15;89.88
14689;BME280;7432;48.728;9.154;2023-01-28T13:03:55;97336.88;;;1.13;88.66
14689;BME280;7432;48.728;9.154;2023-01-28T13:06:26;97333.84;;;1.38;88.73
14689;BME280;7432;48.728;9.154;2023-01-28T13:08:58;97334.16;;;1.48;88.44
14689;BME280;7432;48.728;9.154;2023-01-28T13:11:31;97341.19;;;1.74;88.37
14689;BME280;7432;48.728;9.154;2023-01-28T13:13:59;97336.97;;;1.73;87.97
14689;BME280;7432;48.728;9.154;2023-01-28T13:16:26;97341.25;;;1.72;85.99
14689;BME280;7432;48.728;9.154;2023-01-28T13:19:04;97344.78;;;1.70;87.54
14689;BME280;7432;48.728;9.154;2023-01-28T13:21:35;97342.00;;;1.74;85.51
14689;BME280;7432;48.728;9.154;2023-01-28T13:24:05;97339.81;;;1.37;87.80
14689;BME280;7432;48.728;9.154;2023-01-28T13:26:42;97347.44;;;1.53;87.96
14689;BME280;7432;48.728;9.154;2023-01-28T13:29:19;97341.59;;;1.66;88.07
14689;BME280;7432;48.728;9.154;2023-01-28T13:31:47;97336.91;;;1.74;86.82
14689;BME280;7432;48.728;9.154;2023-01-28T13:34:32;97341.72;;;1.79;87.35
14689;BME280;7432;48.728;9.154;2023-01-28T13:37:03;97345.25;;;1.76;86.34
14689;BME280;7432;48.728;9.154;2023-01-28T13:39:34;97347.78;;;1.76;87.51